Time;durP1;ratioP1;P1;durP2;ratioP2;P2;SDS_P1;SDS_P2;PMS_P1;PMS_P2;Temp;Humidity;BMP_temperature;BMP_pressure;BME280_temperature;BME280_humidity;BME280_pressure;Samples;Min_cycle;Max_cycle;Signal;HPM_P1;HPM_P2
2023/08/05 00:00:17;;;;;;;11.55;3.47;;;;;;;;;;5073465;28;20020;-73
2023/08/05 00:02:43;;;;;;;14.70;3.97;;;;;;;;;;5056558;28;20436;-72
2023/08/05 00:05:09;;;;;;;12.73;3.80;;;;;;;;;;5059086;28;20128;-74
2023/08/05 00:07:35;;;;;;;22.17;4.25;;;;;;;;;;5053360;28;20021;-73
2023/08/05 00:10:02;;;;;;;14.32;4.40;;;;;;;;;;5053210;28;20053;-72
2023/08/05 00:12:28;;;;;;;15.68;4.55;;;;;;;;;;5053099;28;20040;-72
2023/08/05 00:14:54;;;;;;;14.82;4.13;;;;;;;;;;5053127;28;20025;-71
2023/08/05 00:17:20;;;;;;;13.95;4.10;;;;;;;;;;5053181;28;20063;-72
2023/08/05 00:19:46;;;;;;;12.35;3.97;;;;;;;;;;5053253;28;20434;-72
2023/08/05 00:22:12;;;;;;;13.35;3.85;;;;;;;;;;5051634;28;20032;-72
2023/08/05 00:24:39;;;;;;;14.05;3.63;;;;;;;;;;5053016;28;20033;-71
2023/08/05 00:27:06;;;;;;;13.73;4.00;;;;;;;;;;5052607;28;20100;-72
2023/08/05 00:29:32;;;;;;;15.07;4.03;;;;;;;;;;5052912;28;20462;-72
2023/08/05 00:31:57;;;;;;;14.18;4.05;;;;;;;;;;5052588;28;20048;-71
2023/08/05 00:34:23;;;;;;;14.48;3.90;;;;;;;;;;5052536;28;20078;-71
2023/08/05 00:36:49;;;;;;;18.90;3.90;;;;;;;;;;5052851;28;20029;-74
2023/08/05 00:39:15;;;;;;;9.40;3.58;;;;;;;;;;5053172;28;20017;-71
2023/08/05 00:41:41;;;;;;;13.07;3.65;;;;;;;;;;5053371;28;20344;-73
2023/08/05 00:44:07;;;;;;;14.43;4.55;;;;;;;;;;5053018;28;20032;-72
2023/08/05 00:46:33;;;;;;;14.30;3.83;;;;;;;;;;5053468;28;20025;-73
2023/08/05 00:48:59;;;;;;;15.63;3.97;;;;;;;;;;5053130;28;20463;-73
2023/08/05 00:51:26;;;;;;;18.15;4.28;;;;;;;;;;5053283;28;20021;-73
2023/08/05 00:53:52;;;;;;;11.95;4.10;;;;;;;;;;5052941;28;20028;-72
2023/08/05 00:56:18;;;;;;;11.90;4.10;;;;;;;;;;5052928;28;20031;-73
2023/08/05 00:58:44;;;;;;;24.45;5.43;;;;;;;;;;5052753;28;20021;-72
2023/08/05 01:01:11;;;;;;;15.93;4.63;;;;;;;;;;5053108;28;20025;-72
2023/08/05 01:03:37;;;;;;;17.58;4.60;;;;;;;;;;5051828;28;20062;-71
2023/08/05 01:06:05;;;;;;;16.67;4.63;;;;;;;;;;5052568;28;20029;-72
2023/08/05 01:08:31;;;;;;;15.55;4.50;;;;;;;;;;5054028;28;20056;-72
2023/08/05 01:10:59;;;;;;;15.60;5.82;;;;;;;;;;5053704;28;20032;-72
2023/08/05 01:13:25;;;;;;;18.10;6.22;;;;;;;;;;5053304;28;20029;-72
2023/08/05 01:15:50;;;;;;;14.68;5.38;;;;;;;;;;5052269;28;20104;-75
2023/08/05 01:18:17;;;;;;;15.52;5.03;;;;;;;;;;5051894;28;20490;-72
2023/08/05 01:20:50;;;;;;;17.27;4.68;;;;;;;;;;5052157;28;20371;-73
2023/08/05 01:23:28;;;;;;;21.27;4.90;;;;;;;;;;5051692;28;20028;-74
2023/08/05 01:25:54;;;;;;;17.23;4.95;;;;;;;;;;5051897;28;20139;-74
2023/08/05 01:28:21;;;;;;;15.25;4.22;;;;;;;;;;5051740;28;20100;-73
2023/08/05 01:30:48;;;;;;;16.88;4.40;;;;;;;;;;5051948;28;20029;-73
2023/08/05 01:33:15;;;;;;;10.80;4.07;;;;;;;;;;5051758;28;20132;-72
2023/08/05 01:35:47;;;;;;;14.00;4.30;;;;;;;;;;5051926;28;20120;-73
2023/08/05 01:38:13;;;;;;;14.73;4.22;;;;;;;;;;5052042;28;20071;-74
2023/08/05 01:40:39;;;;;;;18.38;4.22;;;;;;;;;;5051649;28;20033;-74
2023/08/05 01:43:05;;;;;;;12.02;4.15;;;;;;;;;;5049559;28;20394;-72
2023/08/05 01:45:31;;;;;;;16.25;4.10;;;;;;;;;;5051480;28;20029;-73
2023/08/05 01:47:57;;;;;;;14.32;4.30;;;;;;;;;;5051711;28;20413;-72
2023/08/05 01:50:23;;;;;;;17.75;4.63;;;;;;;;;;5051578;28;20031;-72
2023/08/05 01:52:49;;;;;;;14.82;4.25;;;;;;;;;;5050988;28;20399;-73
2023/08/05 01:55:15;;;;;;;11.13;3.55;;;;;;;;;;5051496;28;20024;-73
2023/08/05 01:57:41;;;;;;;17.45;3.95;;;;;;;;;;5049337;28;20048;-73
2023/08/05 02:00:08;;;;;;;13.68;3.83;;;;;;;;;;5051391;28;20030;-74
2023/08/05 02:02:34;;;;;;;20.92;4.28;;;;;;;;;;5050700;28;20434;-73
2023/08/05 02:05:00;;;;;;;12.15;3.90;;;;;;;;;;5051034;28;20037;-73
2023/08/05 02:07:26;;;;;;;15.90;4.00;;;;;;;;;;5051254;28;20029;-74
2023/08/05 02:09:52;;;;;;;18.13;3.95;;;;;;;;;;5051026;28;20107;-72
2023/08/05 02:12:18;;;;;;;13.90;3.85;;;;;;;;;;5050620;28;20028;-72
2023/08/05 02:14:44;;;;;;;15.35;4.25;;;;;;;;;;5051040;28;20542;-72
2023/08/05 02:17:10;;;;;;;14.65;4.03;;;;;;;;;;5042845;28;20040;-72
2023/08/05 02:19:36;;;;;;;16.05;4.05;;;;;;;;;;5031934;28;20099;-72
2023/08/05 02:22:02;;;;;;;19.25;4.15;;;;;;;;;;5031297;28;20033;-74
2023/08/05 02:24:28;;;;;;;21.73;4.65;;;;;;;;;;5031450;28;20368;-71
2023/08/05 02:26:54;;;;;;;11.73;3.63;;;;;;;;;;5044587;28;20108;-72
2023/08/05 02:29:20;;;;;;;16.55;4.38;;;;;;;;;;5051349;28;20387;-73
2023/08/05 02:31:46;;;;;;;20.33;4.20;;;;;;;;;;5050508;28;20055;-72
2023/08/05 02:34:12;;;;;;;15.15;4.32;;;;;;;;;;5050842;28;20055;-72
2023/08/05 02:36:38;;;;;;;14.75;4.43;;;;;;;;;;5051655;28;20104;-73
2023/08/05 02:39:04;;;;;;;13.88;3.83;;;;;;;;;;5051885;28;20029;-72
2023/08/05 02:41:29;;;;;;;14.45;3.83;;;;;;;;;;5052626;28;20022;-72
2023/08/05 02:43:55;;;;;;;13.32;4.05;;;;;;;;;;5051672;28;20025;-71
2023/08/05 02:46:21;;;;;;;14.15;3.85;;;;;;;;;;5051690;28;20029;-72
2023/08/05 02:48:47;;;;;;;11.45;3.45;;;;;;;;;;5052407;28;20133;-72
2023/08/05 02:51:13;;;;;;;12.07;3.83;;;;;;;;;;5058063;28;20033;-72
2023/08/05 02:53:39;;;;;;;12.10;3.40;;;;;;;;;;5063070;28;20051;-72
2023/08/05 02:56:05;;;;;;;12.77;4.03;;;;;;;;;;5055874;28;20486;-71
2023/08/05 02:58:31;;;;;;;15.30;4.13;;;;;;;;;;5055055;28;20041;-73
2023/08/05 03:01:07;;;;;;;12.80;4.88;;;;;;;;;;5055192;28;20067;-72
2023/08/05 03:03:34;;;;;;;10.50;3.92;;;;;;;;;;5054186;28;20025;-73
2023/08/05 03:06:00;;;;;;;13.77;3.85;;;;;;;;;;5054397;28;20031;-72
2023/08/05 03:08:26;;;;;;;13.80;3.70;;;;;;;;;;5054186;28;20043;-72
2023/08/05 03:10:59;;;;;;;11.45;3.70;;;;;;;;;;5054214;28;20082;-71
2023/08/05 03:13:25;;;;;;;20.58;4.43;;;;;;;;;;5054421;28;20116;-72
2023/08/05 03:15:51;;;;;;;15.48;3.92;;;;;;;;;;5054107;28;20108;-72
2023/08/05 03:18:17;;;;;;;11.07;3.80;;;;;;;;;;5052596;28;20017;-72
2023/08/05 03:20:43;;;;;;;16.75;4.60;;;;;;;;;;5054058;28;20029;-71
2023/08/05 03:23:10;;;;;;;10.15;3.78;;;;;;;;;;5053918;28;20060;-71
2023/08/05 03:25:36;;;;;;;14.07;3.90;;;;;;;;;;5054001;28;20025;-71
2023/08/05 03:28:02;;;;;;;13.50;3.50;;;;;;;;;;5053831;28;20035;-75
2023/08/05 03:30:28;;;;;;;16.70;3.90;;;;;;;;;;5064713;28;20032;-74
2023/08/05 03:32:54;;;;;;;15.30;3.88;;;;;;;;;;5060859;28;20035;-73
2023/08/05 03:35:20;;;;;;;12.38;4.25;;;;;;;;;;5064095;28;20112;-76
2023/08/05 03:37:47;;;;;;;14.85;4.30;;;;;;;;;;5070032;28;20020;-75
2023/08/05 03:40:13;;;;;;;11.75;3.72;;;;;;;;;;5063248;28;20017;-75
2023/08/05 03:42:39;;;;;;;10.07;3.78;;;;;;;;;;5067202;28;20390;-75
2023/08/05 03:45:06;;;;;;;18.23;4.65;;;;;;;;;;5059826;28;20036;-74
2023/08/05 03:47:33;;;;;;;14.07;3.90;;;;;;;;;;5068019;28;20029;-74
2023/08/05 03:49:58;;;;;;;12.80;3.35;;;;;;;;;;5064245;28;20135;-73
2023/08/05 03:52:26;;;;;;;22.33;4.18;;;;;;;;;;5053816;28;20108;-73
2023/08/05 03:54:52;;;;;;;11.75;4.00;;;;;;;;;;5052104;28;20174;-75
2023/08/05 03:57:18;;;;;;;17.50;4.30;;;;;;;;;;5073254;28;20028;-72
2023/08/05 03:59:46;;;;;;;9.25;3.40;;;;;;;;;;5063768;28;20032;-72
2023/08/05 04:02:12;;;;;;;13.00;3.95;;;;;;;;;;5058738;28;20036;-72
2023/08/05 04:04:39;;;;;;;15.90;4.10;;;;;;;;;;5064597;28;20043;-72
2023/08/05 04:07:05;;;;;;;9.82;3.70;;;;;;;;;;5062208;28;20028;-74
2023/08/05 04:09:31;;;;;;;12.57;3.70;;;;;;;;;;5050455;28;20034;-76
2023/08/05 04:12:01;;;;;;;12.20;3.97;;;;;;;;;;5057149;28;20071;-74
2023/08/05 04:14:27;;;;;;;14.40;3.45;;;;;;;;;;5072823;28;20082;-71
2023/08/05 04:16:55;;;;;;;9.00;3.70;;;;;;;;;;5073079;28;20085;-72
2023/08/05 04:19:22;;;;;;;14.30;4.25;;;;;;;;;;5073027;28;20528;-72
2023/08/05 04:21:51;;;;;;;12.18;3.83;;;;;;;;;;5072754;28;20043;-70
2023/08/05 04:24:19;;;;;;;20.02;4.45;;;;;;;;;;5072810;28;20028;-72
2023/08/05 04:26:45;;;;;;;13.18;4.20;;;;;;;;;;5072757;28;20036;-72
2023/08/05 04:29:11;;;;;;;14.40;4.07;;;;;;;;;;5072679;28;20535;-72
2023/08/05 04:31:38;;;;;;;18.02;4.13;;;;;;;;;;5073101;28;20020;-71
2023/08/05 04:34:04;;;;;;;17.35;5.47;;;;;;;;;;5073221;28;20058;-71
2023/08/05 04:36:30;;;;;;;13.38;3.80;;;;;;;;;;5073393;28;20107;-71
2023/08/05 04:38:59;;;;;;;17.52;3.88;;;;;;;;;;5072874;28;20555;-72
2023/08/05 04:41:25;;;;;;;11.55;3.80;;;;;;;;;;5067514;28;20024;-75
2023/08/05 04:43:51;;;;;;;24.35;4.95;;;;;;;;;;5060020;28;20428;-75
2023/08/05 04:46:17;;;;;;;13.30;3.95;;;;;;;;;;5060198;28;20387;-75
2023/08/05 04:48:43;;;;;;;13.00;3.90;;;;;;;;;;5061601;28;20448;-75
2023/08/05 04:51:09;;;;;;;11.70;3.90;;;;;;;;;;5058013;28;20071;-76
2023/08/05 04:53:35;;;;;;;13.45;4.38;;;;;;;;;;5071738;28;20025;-73
2023/08/05 04:56:01;;;;;;;20.90;4.43;;;;;;;;;;5072551;28;20028;-72
2023/08/05 04:58:27;;;;;;;9.75;4.05;;;;;;;;;;5072304;28;20016;-75
2023/08/05 05:00:57;;;;;;;18.15;4.45;;;;;;;;;;5072528;28;20029;-72
2023/08/05 05:03:23;;;;;;;12.32;4.43;;;;;;;;;;5071871;28;20028;-71
2023/08/05 05:05:49;;;;;;;12.27;4.43;;;;;;;;;;5072277;28;20119;-72
2023/08/05 05:08:15;;;;;;;13.02;4.65;;;;;;;;;;5072056;28;20501;-72
2023/08/05 05:10:45;;;;;;;21.05;5.10;;;;;;;;;;5072008;28;20103;-72
2023/08/05 05:13:11;;;;;;;13.20;3.97;;;;;;;;;;5071754;28;20025;-72
2023/08/05 05:15:37;;;;;;;12.60;4.07;;;;;;;;;;5071844;28;20461;-72
2023/08/05 05:18:03;;;;;;;14.07;3.83;;;;;;;;;;5071732;28;20025;-71
2023/08/05 05:20:29;;;;;;;17.10;3.67;;;;;;;;;;5072009;28;20033;-74
2023/08/05 05:22:55;;;;;;;17.42;4.00;;;;;;;;;;5071286;28;20114;-73
2023/08/05 05:25:22;;;;;;;13.30;3.90;;;;;;;;;;5071640;28;20039;-75
2023/08/05 05:27:48;;;;;;;13.77;3.85;;;;;;;;;;5071604;28;20033;-75
2023/08/05 05:30:14;;;;;;;17.45;3.72;;;;;;;;;;5071617;28;20021;-74
2023/08/05 05:32:40;;;;;;;11.93;3.92;;;;;;;;;;5071413;28;20035;-72
2023/08/05 05:35:06;;;;;;;15.45;4.38;;;;;;;;;;5057727;28;20037;-73
2023/08/05 05:37:32;;;;;;;11.93;3.95;;;;;;;;;;5065806;28;20016;-72
2023/08/05 05:39:58;;;;;;;13.10;3.58;;;;;;;;;;5063086;28;20047;-72
2023/08/05 05:42:24;;;;;;;12.73;3.45;;;;;;;;;;5065114;28;20074;-73
2023/08/05 05:44:52;;;;;;;11.90;3.88;;;;;;;;;;5047089;28;20541;-73
2023/08/05 05:47:18;;;;;;;14.35;3.78;;;;;;;;;;5067157;28;20029;-72
2023/08/05 05:49:44;;;;;;;12.57;3.92;;;;;;;;;;5063011;28;20035;-74
2023/08/05 05:52:13;;;;;;;11.32;3.70;;;;;;;;;;5054895;28;20029;-73
2023/08/05 05:54:39;;;;;;;12.70;3.85;;;;;;;;;;5050984;28;20475;-70
2023/08/05 05:57:05;;;;;;;11.45;3.67;;;;;;;;;;5051145;28;20025;-71
2023/08/05 05:59:31;;;;;;;14.88;4.00;;;;;;;;;;5051249;28;20053;-72
2023/08/05 06:01:57;;;;;;;13.38;3.50;;;;;;;;;;5048175;28;20025;-72
2023/08/05 06:04:27;;;;;;;17.45;4.10;;;;;;;;;;5055178;28;20032;-72
2023/08/05 06:06:54;;;;;;;16.55;3.80;;;;;;;;;;5031450;28;20032;-72
2023/08/05 06:09:20;;;;;;;15.02;3.92;;;;;;;;;;5031210;28;20029;-72
2023/08/05 06:11:46;;;;;;;19.77;4.38;;;;;;;;;;5031044;28;20421;-72
2023/08/05 06:14:12;;;;;;;13.90;4.15;;;;;;;;;;5031039;28;20021;-72
2023/08/05 06:16:38;;;;;;;14.45;4.30;;;;;;;;;;5034346;28;20029;-72
2023/08/05 06:19:04;;;;;;;12.13;4.00;;;;;;;;;;5033112;28;20028;-74
2023/08/05 06:21:30;;;;;;;10.13;3.40;;;;;;;;;;5031091;28;20079;-74
2023/08/05 06:23:56;;;;;;;14.57;3.90;;;;;;;;;;5042322;28;20036;-73
2023/08/05 06:26:22;;;;;;;11.25;3.90;;;;;;;;;;5069665;28;20040;-71
2023/08/05 06:28:50;;;;;;;13.25;3.63;;;;;;;;;;5058902;28;20048;-73
2023/08/05 06:31:16;;;;;;;11.90;3.28;;;;;;;;;;5067774;28;20017;-73
2023/08/05 06:33:42;;;;;;;18.42;4.38;;;;;;;;;;5054188;28;20052;-74
2023/08/05 06:36:08;;;;;;;21.67;4.65;;;;;;;;;;5054549;28;20100;-73
2023/08/05 06:38:34;;;;;;;13.05;4.00;;;;;;;;;;5054934;28;20024;-72
2023/08/05 06:41:00;;;;;;;15.45;3.75;;;;;;;;;;5054851;28;20079;-72
2023/08/05 06:43:26;;;;;;;20.48;4.45;;;;;;;;;;5054415;28;20421;-72
2023/08/05 06:45:52;;;;;;;10.23;3.90;;;;;;;;;;5054867;28;20025;-71
2023/08/05 06:48:18;;;;;;;9.55;3.40;;;;;;;;;;5055003;28;20027;-72
2023/08/05 06:50:44;;;;;;;11.38;3.33;;;;;;;;;;5054742;28;20021;-73
2023/08/05 06:53:10;;;;;;;18.08;3.70;;;;;;;;;;5054445;28;20021;-73
2023/08/05 06:55:36;;;;;;;16.90;4.22;;;;;;;;;;5053143;28;20056;-73
2023/08/05 06:58:03;;;;;;;11.25;3.28;;;;;;;;;;5054249;28;20033;-72
2023/08/05 07:00:29;;;;;;;12.98;3.47;;;;;;;;;;5054999;28;20078;-71
2023/08/05 07:02:57;;;;;;;11.20;3.03;;;;;;;;;;5054774;28;20021;-71
2023/08/05 07:05:23;;;;;;;10.48;3.47;;;;;;;;;;5054717;28;20474;-72
2023/08/05 07:07:49;;;;;;;12.68;3.13;;;;;;;;;;5054014;28;20025;-70
2023/08/05 07:10:15;;;;;;;15.90;3.38;;;;;;;;;;5054097;28;20024;-71
2023/08/05 07:12:41;;;;;;;15.88;3.47;;;;;;;;;;5053760;28;20037;-72
2023/08/05 07:15:07;;;;;;;9.00;3.30;;;;;;;;;;5053894;28;20099;-74
2023/08/05 07:17:33;;;;;;;14.88;3.38;;;;;;;;;;5054870;28;20025;-73
2023/08/05 07:19:59;;;;;;;12.77;6.10;;;;;;;;;;5058448;28;20083;-73
2023/08/05 07:22:26;;;;;;;12.60;3.70;;;;;;;;;;5052754;28;20023;-72
2023/08/05 07:24:55;;;;;;;16.20;7.13;;;;;;;;;;5062168;28;20009;-74
2023/08/05 07:27:21;;;;;;;14.07;3.13;;;;;;;;;;5079621;28;20039;-73
2023/08/05 07:29:47;;;;;;;10.90;3.33;;;;;;;;;;5080912;28;20108;-72
2023/08/05 07:32:13;;;;;;;16.75;3.35;;;;;;;;;;5073237;28;20108;-76
2023/08/05 07:34:39;;;;;;;10.95;2.40;;;;;;;;;;5073731;28;20029;-72
2023/08/05 07:37:05;;;;;;;8.52;2.35;;;;;;;;;;5064261;28;20020;-74
2023/08/05 07:39:34;;;;;;;9.55;2.03;;;;;;;;;;5072666;28;20027;-72
2023/08/05 07:42:03;;;;;;;8.18;2.63;;;;;;;;;;5074109;28;20021;-70
2023/08/05 07:44:32;;;;;;;13.10;2.88;;;;;;;;;;5073365;28;20025;-73
2023/08/05 07:47:01;;;;;;;11.50;3.05;;;;;;;;;;5075518;28;20016;-75
2023/08/05 07:49:27;;;;;;;5.75;2.38;;;;;;;;;;5076673;28;20021;-73
2023/08/05 07:51:54;;;;;;;6.13;2.47;;;;;;;;;;5072734;28;20119;-71
2023/08/05 07:54:24;;;;;;;9.60;2.30;;;;;;;;;;5076298;28;20385;-74
2023/08/05 07:56:51;;;;;;;12.45;2.10;;;;;;;;;;5077076;28;20457;-72
2023/08/05 07:59:19;;;;;;;6.72;2.67;;;;;;;;;;5076784;28;20017;-72
2023/08/05 08:01:46;;;;;;;9.90;3.10;;;;;;;;;;5074243;28;20127;-71
2023/08/05 08:04:14;;;;;;;19.75;6.30;;;;;;;;;;5072852;28;20421;-73
2023/08/05 08:06:43;;;;;;;9.13;2.50;;;;;;;;;;5073178;28;20521;-72
2023/08/05 08:09:09;;;;;;;13.35;2.60;;;;;;;;;;5057536;28;20086;-72
2023/08/05 08:11:35;;;;;;;8.20;3.08;;;;;;;;;;5052959;28;20116;-72
2023/08/05 08:14:01;;;;;;;5.93;2.30;;;;;;;;;;5053695;28;20023;-72
2023/08/05 08:16:28;;;;;;;14.35;2.78;;;;;;;;;;5052780;28;20021;-73
2023/08/05 08:18:54;;;;;;;9.07;2.53;;;;;;;;;;5052268;28;20025;-73
2023/08/05 08:21:19;;;;;;;8.98;2.30;;;;;;;;;;5052959;28;20020;-72
2023/08/05 08:23:45;;;;;;;12.82;2.90;;;;;;;;;;5054442;28;20490;-73
2023/08/05 08:26:11;;;;;;;9.40;2.55;;;;;;;;;;5065395;28;20039;-73
2023/08/05 08:28:37;;;;;;;10.82;3.25;;;;;;;;;;5072408;28;20025;-73
2023/08/05 08:31:03;;;;;;;7.78;2.92;;;;;;;;;;5072554;28;20036;-75
2023/08/05 08:33:29;;;;;;;8.13;2.03;;;;;;;;;;5071582;28;20180;-73
2023/08/05 08:35:55;;;;;;;6.55;2.40;;;;;;;;;;5058893;28;20072;-74
2023/08/05 08:38:25;;;;;;;7.15;2.22;;;;;;;;;;5052628;28;20423;-73
2023/08/05 08:40:52;;;;;;;6.18;1.85;;;;;;;;;;5052518;28;20035;-73
2023/08/05 08:43:18;;;;;;;6.85;1.75;;;;;;;;;;5053320;28;20025;-74
2023/08/05 08:45:46;;;;;;;7.95;1.98;;;;;;;;;;5053953;28;20017;-72
2023/08/05 08:48:12;;;;;;;8.60;2.53;;;;;;;;;;5051776;28;20063;-73
2023/08/05 08:50:39;;;;;;;5.78;2.20;;;;;;;;;;5052236;28;20025;-72
2023/08/05 08:53:08;;;;;;;8.43;2.05;;;;;;;;;;5051405;28;20479;-72
2023/08/05 08:55:34;;;;;;;9.02;3.15;;;;;;;;;;5047114;28;20068;-71
2023/08/05 08:58:01;;;;;;;6.57;2.22;;;;;;;;;;5030830;28;20018;-72
2023/08/05 09:00:27;;;;;;;5.55;2.08;;;;;;;;;;5031660;28;20045;-73
2023/08/05 09:02:53;;;;;;;4.05;1.95;;;;;;;;;;5030426;28;20079;-73
2023/08/05 09:05:20;;;;;;;7.68;2.33;;;;;;;;;;5031400;28;20033;-73
2023/08/05 09:07:46;;;;;;;3.97;2.03;;;;;;;;;;5032155;28;20084;-74
2023/08/05 09:10:12;;;;;;;7.60;2.30;;;;;;;;;;5035344;28;20052;-75
2023/08/05 09:12:38;;;;;;;8.73;2.55;;;;;;;;;;5033224;28;20025;-74
2023/08/05 09:15:04;;;;;;;8.80;2.40;;;;;;;;;;5031846;28;20025;-73
2023/08/05 09:17:37;;;;;;;12.52;2.38;;;;;;;;;;5033122;28;20081;-74
2023/08/05 09:20:10;;;;;;;9.07;2.53;;;;;;;;;;5032061;28;20022;-74
2023/08/05 09:22:37;;;;;;;8.05;2.40;;;;;;;;;;5031784;28;20021;-73
2023/08/05 09:25:03;;;;;;;10.95;2.80;;;;;;;;;;5033982;28;20040;-73
2023/08/05 09:27:45;;;;;;;7.70;2.40;;;;;;;;;;5033470;28;20109;-75
2023/08/05 09:30:16;;;;;;;8.07;2.17;;;;;;;;;;5031075;28;20057;-75
2023/08/05 09:32:43;;;;;;;12.95;2.47;;;;;;;;;;5031656;28;20075;-76
2023/08/05 09:35:10;;;;;;;7.25;2.25;;;;;;;;;;5031539;28;20479;-74
2023/08/05 09:37:38;;;;;;;8.30;2.50;;;;;;;;;;5031650;28;20025;-74
2023/08/05 09:40:15;;;;;;;10.15;2.53;;;;;;;;;;5032093;28;20018;-76
2023/08/05 09:42:41;;;;;;;5.63;2.55;;;;;;;;;;5031226;28;20025;-77
2023/08/05 09:45:09;;;;;;;11.07;2.47;;;;;;;;;;5033256;28;20100;-74
2023/08/05 09:47:35;;;;;;;7.93;2.72;;;;;;;;;;5035062;28;20025;-73
2023/08/05 09:50:05;;;;;;;7.68;2.22;;;;;;;;;;5033960;28;20475;-73
2023/08/05 09:52:33;;;;;;;6.88;2.28;;;;;;;;;;5032625;28;20033;-75
2023/08/05 09:55:01;;;;;;;5.57;2.15;;;;;;;;;;5032348;28;20108;-73
2023/08/05 09:57:27;;;;;;;10.70;2.83;;;;;;;;;;5031551;28;20029;-73
2023/08/05 09:59:53;;;;;;;7.45;2.15;;;;;;;;;;5033655;28;20031;-73
2023/08/05 10:02:25;;;;;;;15.10;2.65;;;;;;;;;;5036023;28;20025;-74
2023/08/05 10:04:53;;;;;;;7.45;2.60;;;;;;;;;;5035667;28;20128;-73
2023/08/05 10:07:19;;;;;;;8.23;2.30;;;;;;;;;;5035842;28;20028;-73
2023/08/05 10:09:46;;;;;;;9.38;2.35;;;;;;;;;;5035274;28;20483;-72
2023/08/05 10:12:13;;;;;;;5.68;2.28;;;;;;;;;;5034936;28;20406;-74
2023/08/05 10:14:40;;;;;;;7.07;2.13;;;;;;;;;;5037390;28;20108;-75
2023/08/05 10:17:07;;;;;;;5.90;2.45;;;;;;;;;;5035191;28;20022;-77
2023/08/05 10:19:33;;;;;;;7.07;2.75;;;;;;;;;;5035059;28;20049;-73
2023/08/05 10:22:12;;;;;;;5.38;2.20;;;;;;;;;;5034568;28;20026;-74
2023/08/05 10:24:51;;;;;;;18.58;8.63;;;;;;;;;;5035117;28;20041;-73
2023/08/05 10:27:17;;;;;;;6.65;2.33;;;;;;;;;;5035871;28;20013;-73
2023/08/05 10:29:52;;;;;;;9.85;2.60;;;;;;;;;;5036824;28;20475;-72
2023/08/05 10:32:28;;;;;;;9.13;2.35;;;;;;;;;;5034655;28;20125;-71
2023/08/05 10:35:12;;;;;;;9.35;3.60;;;;;;;;;;5034622;28;20025;-76
2023/08/05 10:37:47;;;;;;;8.40;2.70;;;;;;;;;;5034763;28;20056;-74
2023/08/05 10:40:13;;;;;;;7.20;2.17;;;;;;;;;;5036138;28;20075;-73
2023/08/05 10:42:39;;;;;;;5.57;2.08;;;;;;;;;;5036050;28;20065;-73
2023/08/05 10:45:06;;;;;;;7.85;2.47;;;;;;;;;;5037076;28;20120;-73
2023/08/05 10:47:33;;;;;;;5.57;2.30;;;;;;;;;;5037431;28;20033;-73
2023/08/05 10:50:00;;;;;;;5.95;2.33;;;;;;;;;;5036787;28;20017;-71
2023/08/05 10:52:26;;;;;;;5.78;2.10;;;;;;;;;;5034054;28;20471;-73
2023/08/05 10:54:53;;;;;;;6.65;2.17;;;;;;;;;;5034489;28;20060;-73
2023/08/05 10:57:29;;;;;;;7.28;2.40;;;;;;;;;;5034042;28;20036;-73
2023/08/05 11:00:01;;;;;;;7.38;2.58;;;;;;;;;;5034313;28;20493;-76
2023/08/05 11:02:27;;;;;;;4.90;2.03;;;;;;;;;;5034608;28;20430;-75
2023/08/05 11:05:08;;;;;;;10.40;2.60;;;;;;;;;;5050326;28;20441;-74
2023/08/05 11:07:37;;;;;;;8.73;2.53;;;;;;;;;;5055246;28;20040;-72
2023/08/05 11:10:04;;;;;;;6.10;2.22;;;;;;;;;;5054092;28;20053;-74
2023/08/05 11:12:30;;;;;;;10.32;2.55;;;;;;;;;;5053734;28;20025;-74
2023/08/05 11:14:59;;;;;;;5.53;2.05;;;;;;;;;;5054565;28;20271;-74
2023/08/05 11:17:26;;;;;;;6.50;2.45;;;;;;;;;;5055598;28;20096;-73
2023/08/05 11:19:52;;;;;;;10.10;2.47;;;;;;;;;;5055865;28;20029;-73
2023/08/05 11:22:25;;;;;;;4.55;2.10;;;;;;;;;;5052288;28;20429;-73
2023/08/05 11:25:01;;;;;;;6.47;2.28;;;;;;;;;;5054256;28;20036;-74
2023/08/05 11:27:34;;;;;;;7.22;2.65;;;;;;;;;;5054182;28;20509;-74
2023/08/05 11:30:10;;;;;;;10.40;2.83;;;;;;;;;;5053777;28;20048;-74
2023/08/05 11:32:48;;;;;;;9.20;2.70;;;;;;;;;;5053661;28;20025;-72
2023/08/05 11:35:14;;;;;;;6.72;2.60;;;;;;;;;;5053656;28;20071;-72
2023/08/05 11:37:40;;;;;;;5.53;2.33;;;;;;;;;;5053577;28;20024;-72
2023/08/05 11:40:07;;;;;;;9.45;2.80;;;;;;;;;;5055074;28;20028;-73
2023/08/05 11:42:33;;;;;;;5.78;2.30;;;;;;;;;;5063109;28;20036;-72
2023/08/05 11:44:59;;;;;;;5.80;2.17;;;;;;;;;;5058299;28;20028;-74
2023/08/05 11:47:26;;;;;;;7.55;2.42;;;;;;;;;;5053791;28;20032;-74
2023/08/05 11:49:53;;;;;;;7.30;2.35;;;;;;;;;;5054128;28;20324;-75
2023/08/05 11:52:19;;;;;;;8.85;2.25;;;;;;;;;;5053685;28;20386;-73
2023/08/05 11:54:56;;;;;;;8.60;2.67;;;;;;;;;;5053314;28;20029;-74
2023/08/05 11:57:22;;;;;;;4.35;2.17;;;;;;;;;;5053351;28;20083;-75
2023/08/05 11:59:48;;;;;;;6.75;2.47;;;;;;;;;;5053651;28;20104;-72
2023/08/05 12:02:15;;;;;;;9.13;2.42;;;;;;;;;;5053146;28;20086;-72
2023/08/05 12:04:51;;;;;;;6.85;2.35;;;;;;;;;;5053144;28;20056;-73
2023/08/05 12:07:21;;;;;;;5.35;2.20;;;;;;;;;;5054588;28;20025;-74
2023/08/05 12:10:16;;;;;;;5.30;2.35;;;;;;;;;;5056515;28;20021;-73
2023/08/05 12:12:43;;;;;;;7.30;3.60;;;;;;;;;;5043915;28;20040;-74
2023/08/05 12:15:26;;;;;;;6.85;2.13;;;;;;;;;;5055578;28;20049;-73
2023/08/05 12:17:58;;;;;;;5.72;2.25;;;;;;;;;;5054982;28;20025;-74
2023/08/05 12:20:24;;;;;;;9.02;2.22;;;;;;;;;;5052299;28;20025;-74
2023/08/05 12:22:51;;;;;;;6.30;2.20;;;;;;;;;;5052415;28;20361;-72
2023/08/05 12:25:17;;;;;;;8.43;2.60;;;;;;;;;;5053104;28;20021;-72
2023/08/05 12:27:43;;;;;;;6.45;2.55;;;;;;;;;;5052513;28;20029;-72
2023/08/05 12:30:10;;;;;;;9.18;2.15;;;;;;;;;;5052699;28;20047;-74
2023/08/05 12:32:36;;;;;;;4.35;2.13;;;;;;;;;;5052257;28;20086;-70
2023/08/05 12:35:03;;;;;;;7.22;2.10;;;;;;;;;;5052594;28;20211;-73
2023/08/05 12:37:29;;;;;;;6.47;2.30;;;;;;;;;;5052438;28;20420;-73
2023/08/05 12:39:55;;;;;;;5.15;1.70;;;;;;;;;;5052364;28;20021;-73
2023/08/05 12:42:22;;;;;;;9.88;1.90;;;;;;;;;;5052061;28;20013;-73
2023/08/05 12:44:48;;;;;;;4.82;2.13;;;;;;;;;;5052208;28;20025;-74
2023/08/05 12:47:14;;;;;;;4.55;1.83;;;;;;;;;;5052350;28;20033;-75
2023/08/05 12:49:40;;;;;;;8.65;3.50;;;;;;;;;;5052311;28;20052;-75
2023/08/05 12:52:06;;;;;;;6.90;2.00;;;;;;;;;;5042719;28;20025;-79
2023/08/05 12:54:32;;;;;;;5.78;2.10;;;;;;;;;;5032560;28;20037;-77
2023/08/05 12:56:58;;;;;;;8.30;1.80;;;;;;;;;;5033048;28;20067;-73
2023/08/05 12:59:24;;;;;;;4.97;1.98;;;;;;;;;;5032979;28;20018;-72
2023/08/05 13:01:50;;;;;;;5.50;1.90;;;;;;;;;;5032283;28;20096;-73
2023/08/05 13:04:16;;;;;;;8.82;2.30;;;;;;;;;;5041134;28;20536;-73
2023/08/05 13:06:42;;;;;;;6.07;1.95;;;;;;;;;;5051892;28;20152;-73
2023/08/05 13:09:08;;;;;;;3.92;1.52;;;;;;;;;;5051230;28;20084;-73
2023/08/05 13:11:34;;;;;;;4.55;2.08;;;;;;;;;;5052628;28;20033;-75
2023/08/05 13:14:00;;;;;;;4.75;1.90;;;;;;;;;;5052005;28;20059;-76
2023/08/05 13:16:26;;;;;;;5.72;2.30;;;;;;;;;;5053271;28;20029;-73
2023/08/05 13:18:52;;;;;;;5.15;2.92;;;;;;;;;;5051278;28;20021;-74
2023/08/05 13:21:18;;;;;;;4.10;2.45;;;;;;;;;;5051881;28;20087;-72
2023/08/05 13:23:44;;;;;;;5.38;2.28;;;;;;;;;;5051049;28;20425;-72
2023/08/05 13:26:10;;;;;;;3.78;2.38;;;;;;;;;;5051690;28;20025;-73
2023/08/05 13:28:36;;;;;;;6.75;2.13;;;;;;;;;;5051667;28;20394;-74
2023/08/05 13:31:03;;;;;;;4.97;1.80;;;;;;;;;;5051713;28;20497;-74
2023/08/05 13:33:29;;;;;;;4.18;1.80;;;;;;;;;;5051374;28;20513;-74
2023/08/05 13:35:55;;;;;;;4.70;2.05;;;;;;;;;;5050517;28;20029;-74
2023/08/05 13:38:21;;;;;;;4.35;1.50;;;;;;;;;;5051862;28;20095;-76
2023/08/05 13:40:53;;;;;;;5.68;1.88;;;;;;;;;;5052066;28;20051;-76
2023/08/05 13:43:19;;;;;;;5.13;1.98;;;;;;;;;;5051161;28;20025;-75
2023/08/05 13:45:49;;;;;;;2.83;1.70;;;;;;;;;;5051707;28;20029;-74
2023/08/05 13:48:15;;;;;;;5.82;1.95;;;;;;;;;;5051318;28;20454;-73
2023/08/05 13:50:41;;;;;;;4.50;2.05;;;;;;;;;;5051684;28;20548;-74
2023/08/05 13:53:07;;;;;;;5.28;2.00;;;;;;;;;;5052134;28;20394;-76
2023/08/05 13:55:33;;;;;;;5.93;1.80;;;;;;;;;;5051879;28;20033;-76
2023/08/05 13:57:59;;;;;;;5.65;1.77;;;;;;;;;;5051460;28;20024;-77
2023/08/05 14:00:25;;;;;;;6.13;1.95;;;;;;;;;;5051762;28;20096;-76
2023/08/05 14:02:51;;;;;;;3.83;1.60;;;;;;;;;;5051007;28;20404;-76
2023/08/05 14:05:18;;;;;;;7.32;2.25;;;;;;;;;;5051926;28;20047;-74
2023/08/05 14:07:44;;;;;;;3.95;2.10;;;;;;;;;;5051656;28;20124;-74
2023/08/05 14:10:10;;;;;;;5.88;1.80;;;;;;;;;;5051344;28;20488;-73
2023/08/05 14:12:36;;;;;;;9.70;1.77;;;;;;;;;;5051475;28;20024;-73
2023/08/05 14:15:02;;;;;;;4.22;2.15;;;;;;;;;;5051268;28;20411;-75
2023/08/05 14:17:29;;;;;;;4.40;1.98;;;;;;;;;;5059715;28;20453;-73
2023/08/05 14:19:55;;;;;;;3.95;1.90;;;;;;;;;;5072971;28;20095;-74
2023/08/05 14:22:21;;;;;;;5.10;2.00;;;;;;;;;;5072586;28;20026;-73
2023/08/05 14:24:47;;;;;;;4.60;2.13;;;;;;;;;;5072586;28;20071;-72
2023/08/05 14:27:13;;;;;;;11.25;2.00;;;;;;;;;;5071253;28;20568;-73
2023/08/05 14:29:39;;;;;;;4.88;1.95;;;;;;;;;;5060116;28;20044;-72
2023/08/05 14:32:05;;;;;;;3.70;2.00;;;;;;;;;;5066685;28;20025;-76
2023/08/05 14:34:31;;;;;;;5.13;1.90;;;;;;;;;;5074707;28;20032;-74